Time;durP1;ratioP1;P1;durP2;ratioP2;P2;SDS_P1;SDS_P2;PMS_P1;PMS_P2;Temp;Humidity;BMP_temperature;BMP_pressure;BME280_temperature;BME280_humidity;BME280_pressure;Samples;Min_cycle;Max_cycle;Signal;HPM_P1;HPM_P2
2021/06/11 00:00:13;;;;;;;3.60;3.30;;;21.60;34.30;;;;;;10318974;28;20640;-77
2021/06/11 00:05:16;;;;;;;3.30;3.10;;;21.50;35.00;;;;;;10340726;28;20591;-76
2021/06/11 00:10:19;;;;;;;3.70;3.43;;;21.40;34.50;;;;;;10298183;28;20750;-77
2021/06/11 00:15:24;;;;;;;3.70;3.40;;;21.40;34.80;;;;;;10301478;28;20332;-76
2021/06/11 00:20:27;;;;;;;3.80;3.47;;;21.30;35.30;;;;;;10315232;28;20245;-76
2021/06/11 00:25:30;;;;;;;3.93;3.50;;;21.30;34.90;;;;;;10307502;28;20265;-76
2021/06/11 00:30:35;;;;;;;3.40;3.20;;;21.20;34.80;;;;;;10321510;28;20240;-76
2021/06/11 00:35:38;;;;;;;3.70;3.40;;;21.10;35.20;;;;;;10314716;28;20237;-76
2021/06/11 00:40:42;;;;;;;4.20;3.90;;;20.90;35.00;;;;;;10311065;28;20254;-77
2021/06/11 00:45:46;;;;;;;5.20;3.83;;;20.90;35.30;;;;;;10329558;28;20762;-76
2021/06/11 00:50:49;;;;;;;3.93;3.53;;;20.80;35.70;;;;;;10311231;28;20234;-76
2021/06/11 00:55:52;;;;;;;3.63;3.33;;;20.80;35.40;;;;;;10315490;28;20231;-77
2021/06/11 01:00:56;;;;;;;4.73;4.33;;;20.80;35.60;;;;;;10311856;28;20227;-76
2021/06/11 01:05:59;;;;;;;4.50;3.50;;;20.70;36.10;;;;;;10318989;28;20239;-76
2021/06/11 01:11:02;;;;;;;4.67;3.83;;;20.60;35.40;;;;;;10322765;28;20231;-76
2021/06/11 01:16:06;;;;;;;3.90;3.60;;;20.50;35.80;;;;;;10327356;28;20231;-76
2021/06/11 01:21:09;;;;;;;3.60;3.30;;;20.50;36.50;;;;;;10330126;28;20236;-76
2021/06/11 01:26:25;;;;;;;3.73;3.37;;;20.40;36.00;;;;;;10323748;28;20598;-77
2021/06/11 01:31:30;;;;;;;3.97;3.60;;;20.40;36.80;;;;;;10323989;28;20226;-76
2021/06/11 01:36:39;;;;;;;3.93;3.63;;;20.30;36.10;;;;;;10324592;28;20265;-76
2021/06/11 01:41:44;;;;;;;3.93;3.63;;;20.30;36.80;;;;;;10314663;28;20227;-76
2021/06/11 01:46:51;;;;;;;6.27;3.97;;;20.20;36.70;;;;;;10313621;28;20236;-76
2021/06/11 01:51:55;;;;;;;4.93;4.43;;;20.20;36.70;;;;;;10326072;28;20249;-76
2021/06/11 01:57:01;;;;;;;4.30;4.00;;;20.20;36.20;;;;;;10328487;28;20711;-76
2021/06/11 02:02:04;;;;;;;4.73;4.33;;;20.10;36.60;;;;;;10326685;28;20225;-76
2021/06/11 02:07:09;;;;;;;5.10;4.70;;;20.00;36.50;;;;;;10331421;28;20223;-76
2021/06/11 02:12:14;;;;;;;3.97;3.67;;;19.90;36.40;;;;;;10326878;28;20597;-76
2021/06/11 02:17:18;;;;;;;3.77;3.47;;;19.80;36.30;;;;;;10326520;28;20231;-76
2021/06/11 02:22:21;;;;;;;4.30;4.00;;;19.80;36.30;;;;;;10326891;28;20604;-76
2021/06/11 02:27:25;;;;;;;4.37;3.63;;;19.80;36.30;;;;;;10320647;28;20300;-76
2021/06/11 02:32:33;;;;;;;5.30;4.50;;;19.70;36.20;;;;;;10321095;28;20231;-76
2021/06/11 02:37:36;;;;;;;3.43;3.20;;;19.70;36.20;;;;;;10318723;28;20235;-76
2021/06/11 02:42:44;;;;;;;4.30;4.00;;;19.60;36.20;;;;;;10328499;28;20235;-76
2021/06/11 02:47:52;;;;;;;4.30;4.00;;;19.60;37.00;;;;;;10324258;28;20282;-76
2021/06/11 02:53:00;;;;;;;4.40;3.97;;;19.60;36.80;;;;;;10338034;28;20222;-75
2021/06/11 02:58:13;;;;;;;4.47;4.07;;;19.50;36.80;;;;;;10335616;28;20229;-76
2021/06/11 03:03:19;;;;;;;4.70;4.30;;;19.50;36.70;;;;;;10327005;28;20267;-76
2021/06/11 03:08:25;;;;;;;4.10;3.70;;;19.50;36.30;;;;;;10322209;28;20605;-76
2021/06/11 03:13:30;;;;;;;4.03;3.73;;;19.50;36.60;;;;;;10330580;28;20258;-76
2021/06/11 03:18:36;;;;;;;4.17;3.70;;;19.40;36.60;;;;;;10327459;28;20233;-76
2021/06/11 03:23:45;;;;;;;4.13;3.83;;;19.40;36.50;;;;;;10317693;28;20239;-76
2021/06/11 03:28:53;;;;;;;3.90;3.60;;;19.40;36.80;;;;;;10326593;28;20723;-76
2021/06/11 03:34:02;;;;;;;7.13;4.40;;;19.40;36.60;;;;;;10313648;28;20708;-76
2021/06/11 03:39:07;;;;;;;4.37;4.07;;;19.30;36.80;;;;;;10309309;28;20226;-76
2021/06/11 03:44:13;;;;;;;5.73;4.27;;;19.30;36.40;;;;;;10314001;28;20245;-76
2021/06/11 03:49:18;;;;;;;4.23;3.93;;;19.30;36.50;;;;;;10326470;28;20231;-76
2021/06/11 03:54:23;;;;;;;4.10;3.70;;;19.20;36.10;;;;;;10321091;28;20235;-76
2021/06/11 03:59:33;;;;;;;5.33;3.97;;;19.20;36.40;;;;;;10319611;28;20271;-76
2021/06/11 04:04:37;;;;;;;9.33;3.97;;;19.10;36.70;;;;;;10319220;28;20318;-76
2021/06/11 04:09:45;;;;;;;9.23;5.03;;;19.10;36.60;;;;;;10321447;28;20242;-76
2021/06/11 04:14:52;;;;;;;7.50;5.00;;;19.10;37.40;;;;;;10316874;28;20237;-76
2021/06/11 04:19:57;;;;;;;5.80;5.20;;;19.00;37.40;;;;;;10321675;28;20239;-76
2021/06/11 04:25:00;;;;;;;4.87;4.47;;;19.00;37.40;;;;;;10314744;28;20227;-76
2021/06/11 04:30:06;;;;;;;5.10;4.60;;;18.90;37.40;;;;;;10312540;28;20223;-76
2021/06/11 04:35:09;;;;;;;8.23;4.63;;;18.90;38.20;;;;;;10317558;28;20319;-76
2021/06/11 04:40:13;;;;;;;4.93;4.47;;;18.90;37.70;;;;;;10312073;28;20255;-76
2021/06/11 04:45:20;;;;;;;6.03;4.53;;;18.90;38.10;;;;;;10318238;28;20238;-76
2021/06/11 04:50:23;;;;;;;4.60;4.30;;;18.80;38.50;;;;;;10311643;28;20250;-76
2021/06/11 04:55:26;;;;;;;5.40;5.00;;;18.80;38.30;;;;;;10311926;28;20235;-76
2021/06/11 05:00:30;;;;;;;5.70;5.20;;;18.80;38.70;;;;;;10314518;28;20231;-76
2021/06/11 05:05:33;;;;;;;5.50;5.00;;;18.80;39.30;;;;;;10320264;28;20250;-76
2021/06/11 05:10:37;;;;;;;6.27;5.70;;;18.80;38.90;;;;;;10312645;28;20227;-76
2021/06/11 05:15:41;;;;;;;6.10;5.60;;;18.90;39.30;;;;;;10310812;28;20227;-76
2021/06/11 05:20:44;;;;;;;7.23;6.67;;;19.00;39.90;;;;;;10317787;28;20254;-76
2021/06/11 05:25:47;;;;;;;6.27;5.77;;;19.20;39.80;;;;;;10311872;28;20231;-76
2021/06/11 05:30:53;;;;;;;6.70;6.20;;;19.30;39.70;;;;;;10311661;28;20235;-76
2021/06/11 05:35:55;;;;;;;7.03;6.43;;;19.40;40.70;;;;;;10316477;28;20231;-76
2021/06/11 05:41:00;;;;;;;6.80;6.30;;;19.60;40.00;;;;;;10312137;28;20231;-77
2021/06/11 05:46:04;;;;;;;7.57;6.87;;;19.70;40.20;;;;;;10324530;28;20234;-76
2021/06/11 05:51:07;;;;;;;6.90;6.37;;;19.80;40.60;;;;;;10313384;28;20285;-77
2021/06/11 05:56:10;;;;;;;6.57;5.97;;;20.00;40.10;;;;;;10320453;28;20318;-76
2021/06/11 06:01:14;;;;;;;6.87;6.33;;;20.10;40.30;;;;;;10320746;28;20231;-76
2021/06/11 06:06:17;;;;;;;6.03;5.63;;;20.20;40.50;;;;;;10317025;28;20549;-77
2021/06/11 06:11:20;;;;;;;6.43;5.90;;;20.40;40.20;;;;;;10316637;28;20231;-77
2021/06/11 06:16:25;;;;;;;6.70;6.10;;;20.50;40.20;;;;;;10319063;28;20605;-77
2021/06/11 06:21:30;;;;;;;6.33;5.87;;;20.70;40.50;;;;;;10312568;28;20636;-77
2021/06/11 06:26:34;;;;;;;6.13;5.63;;;20.90;39.90;;;;;;10309798;28;20231;-77
2021/06/11 06:31:38;;;;;;;6.60;6.00;;;21.00;40.00;;;;;;10316401;28;20230;-77
2021/06/11 06:36:41;;;;;;;5.83;5.43;;;21.20;39.80;;;;;;10324028;28;20239;-77
2021/06/11 06:41:44;;;;;;;6.00;5.60;;;21.40;39.80;;;;;;10315126;28;20325;-77
2021/06/11 06:46:48;;;;;;;6.10;5.70;;;21.50;39.40;;;;;;10319760;28;20235;-77
2021/06/11 06:51:51;;;;;;;5.63;5.23;;;21.70;39.30;;;;;;10322301;28;20231;-77
2021/06/11 06:56:54;;;;;;;5.27;4.87;;;21.80;39.30;;;;;;10322088;28;20271;-77
2021/06/11 07:02:00;;;;;;;5.20;4.80;;;21.90;39.20;;;;;;10314189;28;20228;-77
2021/06/11 07:07:04;;;;;;;4.83;4.53;;;22.00;39.00;;;;;;10317786;28;20231;-77
2021/06/11 07:12:07;;;;;;;4.80;4.40;;;22.20;38.70;;;;;;10321919;28;20233;-77
2021/06/11 07:17:11;;;;;;;5.20;4.77;;;22.30;38.50;;;;;;10317018;28;20237;-77
2021/06/11 07:22:14;;;;;;;5.03;4.70;;;22.50;38.70;;;;;;10313191;28;20241;-77
2021/06/11 07:27:17;;;;;;;4.80;4.43;;;22.70;38.90;;;;;;10324280;28;20239;-77
2021/06/11 07:32:21;;;;;;;4.90;4.60;;;22.90;39.10;;;;;;10325362;28;20618;-77
2021/06/11 07:37:24;;;;;;;5.07;4.67;;;23.10;38.50;;;;;;10327604;28;20247;-76
2021/06/11 07:42:26;;;;;;;5.33;4.97;;;23.30;38.10;;;;;;10322408;28;20230;-76
2021/06/11 07:47:30;;;;;;;5.17;4.77;;;23.60;37.90;;;;;;10326823;28;20246;-76
2021/06/11 07:52:35;;;;;;;5.30;4.90;;;23.80;37.80;;;;;;10318456;28;20305;-76
2021/06/11 07:57:38;;;;;;;5.20;4.80;;;24.00;37.80;;;;;;10325126;28;20231;-76
2021/06/11 08:02:43;;;;;;;5.30;4.90;;;24.20;37.40;;;;;;10325662;28;20231;-76
2021/06/11 08:07:45;;;;;;;4.93;4.63;;;24.30;36.80;;;;;;10318996;28;20234;-76
2021/06/11 08:12:48;;;;;;;5.23;4.90;;;24.50;37.00;;;;;;10326876;28;20237;-76
2021/06/11 08:17:53;;;;;;;5.40;5.00;;;24.70;37.10;;;;;;10319128;28;20285;-76
2021/06/11 08:22:56;;;;;;;5.00;4.60;;;24.90;36.70;;;;;;10321564;28;20313;-77
2021/06/11 08:27:59;;;;;;;6.13;5.00;;;25.10;37.00;;;;;;10319944;28;20762;-76
2021/06/11 08:33:04;;;;;;;5.50;5.10;;;25.40;36.80;;;;;;10323893;28;20227;-76
2021/06/11 08:38:07;;;;;;;4.97;4.67;;;25.60;35.90;;;;;;10320929;28;20227;-76
2021/06/11 08:43:10;;;;;;;5.30;4.90;;;25.90;36.10;;;;;;10314549;28;20706;-76
2021/06/11 08:48:14;;;;;;;8.17;6.83;;;26.10;35.40;;;;;;10322421;28;20243;-76
2021/06/11 08:53:17;;;;;;;5.50;5.10;;;26.20;33.50;;;;;;10317200;28;20239;-76
2021/06/11 08:58:20;;;;;;;5.30;4.90;;;26.30;33.40;;;;;;10343178;23;20237;-76
2021/06/11 09:03:27;;;;;;;5.17;4.87;;;26.40;33.40;;;;;;10385004;28;20600;-76
2021/06/11 09:08:29;;;;;;;4.77;4.47;;;26.50;32.20;;;;;;10386068;28;20243;-76
2021/06/11 09:13:32;;;;;;;5.37;5.07;;;26.60;33.20;;;;;;10380747;28;20329;-76
2021/06/11 09:18:48;;;;;;;4.80;4.50;;;26.80;32.90;;;;;;10381811;28;20233;-76
2021/06/11 09:24:11;;;;;;;5.40;5.07;;;27.00;31.80;;;;;;10377806;28;20709;-76
2021/06/11 09:29:18;;;;;;;5.13;4.73;;;27.30;31.60;;;;;;10385319;28;20727;-76
2021/06/11 09:34:25;;;;;;;5.10;4.53;;;27.50;30.40;;;;;;10383306;28;20325;-76
2021/06/11 09:39:41;;;;;;;4.80;4.50;;;27.60;30.50;;;;;;10385377;28;20238;-75
2021/06/11 09:44:57;;;;;;;4.90;4.60;;;27.80;30.50;;;;;;10382711;28;20229;-75
2021/06/11 09:50:09;;;;;;;5.10;4.80;;;27.90;30.10;;;;;;10381933;28;20268;-75
2021/06/11 09:55:29;;;;;;;4.73;4.43;;;28.10;29.10;;;;;;10370558;28;20301;-76
2021/06/11 10:00:33;;;;;;;4.50;4.20;;;28.20;28.40;;;;;;10378509;28;20234;-76
2021/06/11 10:05:39;;;;;;;4.43;4.10;;;28.10;29.60;;;;;;10382334;28;20226;-75
2021/06/11 10:10:44;;;;;;;5.43;5.07;;;28.00;28.80;;;;;;10379185;28;20249;-76
2021/06/11 10:15:48;;;;;;;5.90;5.40;;;28.10;30.30;;;;;;10379134;28;20239;-75
2021/06/11 10:21:08;;;;;;;4.60;4.30;;;28.10;29.30;;;;;;10353862;28;20238;-75
2021/06/11 10:26:14;;;;;;;5.83;4.50;;;28.10;29.40;;;;;;10387176;28;20240;-75
2021/06/11 10:31:19;;;;;;;4.33;4.13;;;28.40;29.60;;;;;;10380285;28;20319;-75
2021/06/11 10:36:39;;;;;;;4.13;3.93;;;28.50;28.60;;;;;;10384116;28;20238;-75
2021/06/11 10:41:57;;;;;;;4.77;4.47;;;28.60;27.60;;;;;;10379630;28;20271;-76
2021/06/11 10:47:30;;;;;;;4.90;4.50;;;28.70;27.90;;;;;;10377178;28;20292;-75
2021/06/11 10:52:37;;;;;;;5.03;4.73;;;28.80;28.60;;;;;;10372065;28;20250;-75
2021/06/11 10:57:40;;;;;;;5.27;4.87;;;28.90;27.40;;;;;;10379978;28;20283;-75
2021/06/11 11:02:48;;;;;;;5.07;4.73;;;28.90;28.00;;;;;;10377492;28;20233;-75
2021/06/11 11:07:53;;;;;;;5.43;5.03;;;28.90;27.00;;;;;;10383564;28;20319;-75
2021/06/11 11:13:01;;;;;;;5.23;4.83;;;28.90;26.90;;;;;;10392713;28;20391;-75
2021/06/11 11:18:06;;;;;;;5.40;5.00;;;28.90;26.60;;;;;;10387777;28;20226;-77
2021/06/11 11:23:13;;;;;;;5.03;4.73;;;29.00;26.60;;;;;;10386330;28;20369;-76
2021/06/11 11:28:18;;;;;;;5.20;4.83;;;28.80;25.90;;;;;;10386526;28;20325;-76
2021/06/11 11:33:21;;;;;;;4.80;4.47;;;28.90;26.50;;;;;;10385963;28;20253;-76
2021/06/11 11:38:25;;;;;;;4.93;4.63;;;28.80;27.10;;;;;;10388151;28;20233;-75
2021/06/11 11:43:27;;;;;;;4.87;4.47;;;28.90;26.30;;;;;;10388192;28;20237;-75
2021/06/11 11:48:30;;;;;;;4.97;4.57;;;28.90;26.60;;;;;;10383101;28;20625;-75
2021/06/11 11:53:34;;;;;;;5.13;4.77;;;28.90;26.20;;;;;;10388634;28;20238;-75
2021/06/11 11:58:37;;;;;;;4.50;4.20;;;29.00;26.10;;;;;;10383628;28;20309;-75
2021/06/11 12:03:40;;;;;;;4.37;4.13;;;29.20;26.30;;;;;;10387509;28;20237;-75
2021/06/11 12:08:44;;;;;;;4.47;4.20;;;29.40;26.10;;;;;;10386085;28;20612;-75
2021/06/11 12:13:50;;;;;;;4.43;4.20;;;29.50;25.40;;;;;;10382751;28;20720;-75
2021/06/11 12:18:53;;;;;;;4.50;4.30;;;29.40;25.50;;;;;;10388937;28;20706;-75
2021/06/11 12:23:57;;;;;;;4.47;4.17;;;29.40;25.70;;;;;;10386762;28;20283;-75
2021/06/11 12:29:01;;;;;;;4.57;4.27;;;29.40;25.00;;;;;;10385657;28;20239;-75
2021/06/11 12:34:04;;;;;;;4.43;4.13;;;29.40;25.40;;;;;;10381146;28;20244;-76
2021/06/11 12:39:08;;;;;;;3.97;3.77;;;29.50;25.00;;;;;;10383963;28;20232;-75
2021/06/11 12:44:18;;;;;;;4.70;4.40;;;29.40;24.60;;;;;;10384312;28;20284;-74
2021/06/11 12:49:22;;;;;;;4.93;4.63;;;29.50;24.40;;;;;;10383002;28;20249;-75
2021/06/11 12:54:26;;;;;;;4.43;4.17;;;29.40;24.90;;;;;;10380243;28;20658;-74
2021/06/11 12:59:29;;;;;;;4.87;4.40;;;29.50;24.70;;;;;;10385972;28;20233;-74
2021/06/11 13:04:32;;;;;;;4.83;4.53;;;29.60;25.40;;;;;;10384202;28;20245;-74
2021/06/11 13:09:37;;;;;;;4.80;4.40;;;29.60;24.90;;;;;;10385528;28;20244;-74
2021/06/11 13:14:40;;;;;;;4.80;4.50;;;29.70;24.10;;;;;;10384271;28;20249;-74
2021/06/11 13:19:43;;;;;;;4.17;3.97;;;29.80;24.50;;;;;;10378565;28;20226;-74
2021/06/11 13:24:47;;;;;;;4.60;4.30;;;29.80;24.10;;;;;;10376733;28;20231;-74
2021/06/11 13:29:50;;;;;;;4.10;3.80;;;29.80;23.30;;;;;;10382086;28;20284;-74
2021/06/11 13:34:54;;;;;;;4.17;3.87;;;29.90;24.10;;;;;;10378198;28;20239;-74
2021/06/11 13:39:58;;;;;;;4.10;3.87;;;29.90;24.00;;;;;;10381326;28;20744;-74
2021/06/11 13:45:01;;;;;;;3.90;3.70;;;29.90;23.70;;;;;;10374959;28;20236;-77
2021/06/11 13:50:05;;;;;;;3.70;3.43;;;29.90;23.80;;;;;;10378434;28;20225;-75
2021/06/11 13:55:11;;;;;;;3.63;3.40;;;29.90;23.20;;;;;;10380230;28;20229;-76
2021/06/11 14:00:16;;;;;;;4.20;3.83;;;30.00;22.50;;;;;;10389643;28;20237;-79
2021/06/11 14:05:19;;;;;;;3.80;3.60;;;29.90;22.20;;;;;;10404998;28;20233;-80
2021/06/11 14:10:24;;;;;;;3.80;3.60;;;29.90;23.00;;;;;;10407476;28;20238;-73
2021/06/11 14:15:27;;;;;;;4.03;3.73;;;29.90;22.70;;;;;;10397763;28;20229;-80
2021/06/11 14:20:30;;;;;;;3.80;3.60;;;29.80;22.90;;;;;;10391662;28;20594;-79
2021/06/11 14:25:34;;;;;;;4.00;3.70;;;29.80;23.00;;;;;;10392556;28;20610;-79
2021/06/11 14:30:37;;;;;;;3.97;3.50;;;29.80;23.00;;;;;;10403786;28;20232;-79
2021/06/11 14:35:41;;;;;;;3.97;3.77;;;29.90;23.50;;;;;;10388831;28;20596;-79
2021/06/11 14:40:46;;;;;;;4.27;3.97;;;29.90;23.00;;;;;;10392592;28;20237;-74
2021/06/11 14:45:49;;;;;;;4.30;4.00;;;30.00;23.10;;;;;;10389223;28;20234;-74
2021/06/11 14:50:52;;;;;;;4.40;4.10;;;30.00;22.90;;;;;;10381633;28;20237;-74
2021/06/11 14:56:04;;;;;;;4.60;4.30;;;30.00;23.10;;;;;;10388756;28;20320;-74
2021/06/11 15:01:08;;;;;;;4.03;3.83;;;30.00;22.30;;;;;;10381114;28;20584;-74
2021/06/11 15:06:11;;;;;;;4.60;4.20;;;30.00;22.60;;;;;;10386362;28;20334;-72
2021/06/11 15:11:15;;;;;;;4.30;4.00;;;30.00;22.90;;;;;;10390347;28;20590;-74
2021/06/11 15:16:20;;;;;;;4.33;4.03;;;30.00;22.50;;;;;;10393749;28;20737;-74
2021/06/11 15:21:23;;;;;;;4.07;3.87;;;30.00;22.10;;;;;;10391479;28;20312;-74
2021/06/11 15:26:28;;;;;;;4.30;4.10;;;30.00;22.20;;;;;;10394420;28;20831;-74
2021/06/11 15:31:30;;;;;;;4.70;4.40;;;30.00;21.60;;;;;;10383945;28;20242;-74
2021/06/11 15:36:33;;;;;;;4.33;4.03;;;30.00;21.80;;;;;;10384166;28;20229;-74
2021/06/11 15:41:37;;;;;;;4.37;3.97;;;29.90;22.10;;;;;;10379934;28;20230;-74
2021/06/11 15:46:40;;;;;;;4.17;3.97;;;29.90;21.80;;;;;;10384296;28;20240;-74
2021/06/11 15:51:43;;;;;;;4.43;4.13;;;30.00;21.60;;;;;;10381944;28;20233;-75
2021/06/11 15:56:47;;;;;;;4.67;4.27;;;30.00;21.60;;;;;;10382254;28;20729;-74
2021/06/11 16:01:49;;;;;;;4.37;4.17;;;29.90;21.90;;;;;;10385447;28;20626;-75
2021/06/11 16:06:57;;;;;;;4.97;4.57;;;29.90;21.70;;;;;;10384498;28;20232;-74
2021/06/11 16:12:01;;;;;;;4.70;4.40;;;30.00;21.10;;;;;;10383827;28;20608;-74
2021/06/11 16:17:04;;;;;;;4.73;4.43;;;30.10;21.20;;;;;;10379019;28;20225;-75
2021/06/11 16:22:07;;;;;;;4.63;4.33;;;30.20;21.30;;;;;;10388429;28;20250;-75
2021/06/11 16:27:14;;;;;;;5.23;4.83;;;30.20;21.20;;;;;;10386391;28;20234;-76
2021/06/11 16:32:16;;;;;;;4.67;4.27;;;30.20;21.20;;;;;;10384736;28;20230;-75
2021/06/11 16:37:19;;;;;;;4.70;4.37;;;30.10;21.20;;;;;;10380285;28;20234;-75
2021/06/11 16:42:23;;;;;;;4.53;4.23;;;30.20;21.20;;;;;;10379611;28;20237;-76
2021/06/11 16:47:26;;;;;;;4.40;4.10;;;30.20;21.20;;;;;;10383577;28;20648;-76
2021/06/11 16:52:31;;;;;;;4.43;4.13;;;30.20;21.20;;;;;;10382743;28;20303;-76
2021/06/11 16:57:35;;;;;;;4.57;4.17;;;30.30;21.30;;;;;;10385468;28;20234;-76
2021/06/11 17:02:38;;;;;;;4.40;4.10;;;30.30;21.10;;;;;;10383526;28;20234;-76
2021/06/11 17:07:41;;;;;;;4.10;3.90;;;30.30;20.90;;;;;;10378415;28;20736;-75
2021/06/11 17:12:45;;;;;;;4.23;3.97;;;30.40;21.30;;;;;;10386417;28;20225;-76
2021/06/11 17:17:49;;;;;;;4.40;4.07;;;30.40;20.50;;;;;;10380727;28;20336;-76
2021/06/11 17:22:55;;;;;;;4.60;4.30;;;30.30;20.80;;;;;;10377179;28;20910;-74
2021/06/11 17:28:20;;;;;;;4.70;4.30;;;30.40;21.20;;;;;;10384291;28;20710;-75
2021/06/11 17:33:28;;;;;;;4.40;4.10;;;30.40;20.00;;;;;;10349346;28;20591;-75
2021/06/11 17:38:39;;;;;;;4.03;3.80;;;30.50;19.90;;;;;;10331723;28;20219;-76
2021/06/11 17:43:43;;;;;;;4.20;3.90;;;30.50;19.70;;;;;;10343898;28;20233;-75
2021/06/11 17:48:46;;;;;;;3.93;3.73;;;30.40;20.10;;;;;;10337086;28;20234;-76
2021/06/11 17:53:49;;;;;;;4.90;4.07;;;30.40;20.40;;;;;;10342940;28;20242;-75
2021/06/11 17:58:55;;;;;;;4.10;3.80;;;30.30;20.60;;;;;;10338333;28;20218;-75
2021/06/11 18:04:01;;;;;;;4.57;4.27;;;30.30;20.80;;;;;;10341222;28;20231;-75
2021/06/11 18:09:11;;;;;;;5.73;5.33;;;30.30;21.30;;;;;;10341768;28;20600;-76
2021/06/11 18:14:17;;;;;;;5.03;4.73;;;30.20;20.90;;;;;;10342644;28;20239;-78
2021/06/11 18:19:21;;;;;;;4.50;4.20;;;30.30;21.30;;;;;;10376773;28;20241;-79
2021/06/11 18:24:25;;;;;;;4.87;4.47;;;30.30;21.30;;;;;;10396701;28;20230;-79
2021/06/11 18:29:40;;;;;;;4.20;4.00;;;30.20;21.20;;;;;;10387376;28;20226;-74
2021/06/11 18:35:00;;;;;;;4.60;4.30;;;30.10;21.20;;;;;;10380584;28;20763;-75
2021/06/11 18:40:07;;;;;;;4.87;4.50;;;30.00;21.90;;;;;;10384439;28;20311;-76
2021/06/11 18:45:13;;;;;;;4.30;4.00;;;29.90;21.70;;;;;;10376263;28;20464;-76
2021/06/11 18:50:18;;;;;;;4.77;4.47;;;29.90;22.10;;;;;;10378191;28;20710;-76
2021/06/11 18:55:22;;;;;;;4.30;4.00;;;29.70;22.10;;;;;;10377845;28;20248;-76
2021/06/11 19:00:26;;;;;;;4.50;4.20;;;29.60;22.30;;;;;;10378381;28;20229;-74
2021/06/11 19:05:29;;;;;;;4.23;3.93;;;29.50;22.30;;;;;;10379212;28;20691;-76
2021/06/11 19:10:33;;;;;;;4.07;3.77;;;29.40;22.50;;;;;;10385712;28;20237;-77
2021/06/11 19:15:38;;;;;;;4.40;4.10;;;29.20;22.50;;;;;;10383460;28;20226;-76
2021/06/11 19:20:41;;;;;;;4.60;4.30;;;29.00;22.70;;;;;;10379267;28;20237;-75
2021/06/11 19:25:44;;;;;;;4.63;4.33;;;28.90;22.70;;;;;;10377589;28;20230;-75
2021/06/11 19:30:49;;;;;;;4.63;4.33;;;28.70;22.90;;;;;;10386878;28;20695;-75
2021/06/11 19:35:56;;;;;;;4.67;4.37;;;28.60;23.20;;;;;;10378856;28;20312;-75
2021/06/11 19:41:00;;;;;;;4.97;4.67;;;28.50;23.20;;;;;;10389978;28;20245;-75
2021/06/11 19:46:08;;;;;;;4.40;4.00;;;28.40;23.40;;;;;;10381958;28;20221;-76
2021/06/11 19:51:16;;;;;;;4.80;4.50;;;28.30;23.60;;;;;;10392069;28;20234;-80
2021/06/11 19:56:28;;;;;;;4.70;4.40;;;28.10;23.80;;;;;;10402296;28;20228;-78
2021/06/11 20:01:37;;;;;;;4.73;4.43;;;28.00;23.80;;;;;;10393522;28;20238;-77
2021/06/11 20:06:40;;;;;;;4.63;4.30;;;27.80;24.00;;;;;;10386282;28;20768;-77
2021/06/11 20:11:44;;;;;;;5.17;4.80;;;27.60;23.90;;;;;;10384070;28;20711;-76
2021/06/11 20:16:51;;;;;;;4.97;4.57;;;27.40;24.10;;;;;;10388570;28;20338;-76
2021/06/11 20:21:54;;;;;;;5.50;5.10;;;27.20;24.40;;;;;;10390180;28;20643;-77
2021/06/11 20:26:57;;;;;;;5.23;4.83;;;26.90;24.50;;;;;;10383923;28;20245;-77
2021/06/11 20:32:01;;;;;;;5.57;5.17;;;26.70;24.70;;;;;;10384141;28;20245;-77
2021/06/11 20:37:04;;;;;;;5.27;4.87;;;26.50;25.20;;;;;;10382023;28;20257;-75
2021/06/11 20:42:09;;;;;;;5.37;4.97;;;26.30;25.20;;;;;;10390779;28;20225;-75
2021/06/11 20:47:13;;;;;;;6.23;5.83;;;26.10;25.40;;;;;;10384542;28;20237;-76
2021/06/11 20:52:16;;;;;;;5.87;5.47;;;25.80;25.60;;;;;;10392498;28;20262;-76
2021/06/11 20:57:19;;;;;;;5.57;5.17;;;25.60;25.70;;;;;;10404460;28;20425;-76
2021/06/11 21:02:23;;;;;;;6.03;5.63;;;25.30;26.00;;;;;;10395978;28;20245;-77
2021/06/11 21:07:26;;;;;;;5.90;5.40;;;25.10;26.40;;;;;;10398009;28;20728;-77
2021/06/11 21:12:29;;;;;;;6.10;5.63;;;25.00;26.60;;;;;;10400870;28;20717;-72
2021/06/11 21:17:34;;;;;;;6.00;5.60;;;24.80;26.80;;;;;;10395054;28;20238;-72
2021/06/11 21:22:36;;;;;;;5.73;5.33;;;24.80;27.90;;;;;;10384712;28;20226;-74
2021/06/11 21:27:41;;;;;;;6.07;5.67;;;24.70;26.90;;;;;;10387094;28;20301;-74
2021/06/11 21:32:46;;;;;;;6.10;5.70;;;24.50;27.20;;;;;;10381126;28;20613;-74
2021/06/11 21:37:49;;;;;;;6.33;5.83;;;24.20;27.90;;;;;;10390102;28;20233;-72
2021/06/11 21:42:52;;;;;;;5.53;5.13;;;24.00;27.70;;;;;;10383288;28;21325;-72
2021/06/11 21:47:57;;;;;;;6.30;5.70;;;24.00;28.10;;;;;;10390209;28;20245;-72
2021/06/11 21:53:00;;;;;;;7.10;6.60;;;23.90;27.90;;;;;;10388153;28;20237;-72
2021/06/11 21:58:02;;;;;;;6.10;5.60;;;23.90;27.90;;;;;;10388139;28;20221;-73
2021/06/11 22:03:06;;;;;;;5.47;5.10;;;23.90;27.90;;;;;;10382619;28;20232;-73
2021/06/11 22:08:09;;;;;;;5.33;4.93;;;23.80;27.90;;;;;;10383292;28;20248;-73
2021/06/11 22:13:12;;;;;;;4.87;4.57;;;23.80;27.90;;;;;;10381652;28;20271;-73
2021/06/11 22:18:16;;;;;;;5.23;4.93;;;23.80;27.90;;;;;;10379875;28;20230;-73
2021/06/11 22:23:19;;;;;;;5.13;4.73;;;23.80;28.50;;;;;;10380836;28;20234;-73
2021/06/11 22:28:22;;;;;;;4.87;4.47;;;23.80;27.90;;;;;;10378412;28;20226;-73
2021/06/11 22:33:27;;;;;;;6.33;5.83;;;23.80;27.90;;;;;;10378618;28;20229;-73
2021/06/11 22:38:29;;;;;;;5.43;5.03;;;23.80;28.60;;;;;;10385429;28;20229;-73
2021/06/11 22:43:32;;;;;;;5.67;5.27;;;23.50;27.90;;;;;;10383030;28;20234;-73
2021/06/11 22:48:36;;;;;;;5.57;5.07;;;23.30;28.30;;;;;;10377266;28;20249;-73
2021/06/11 22:53:39;;;;;;;6.10;5.70;;;23.10;29.00;;;;;;10379425;28;20237;-73
2021/06/11 22:58:45;;;;;;;6.27;5.77;;;23.10;29.00;;;;;;10372644;28;20245;-72
2021/06/11 23:03:49;;;;;;;5.53;5.13;;;23.00;29.50;;;;;;10385729;28;20229;-73
2021/06/11 23:08:52;;;;;;;6.07;5.57;;;22.80;29.30;;;;;;10386602;28;20601;-72
2021/06/11 23:13:55;;;;;;;6.10;5.70;;;22.60;29.20;;;;;;10384839;28;20250;-72
2021/06/11 23:18:59;;;;;;;6.90;6.30;;;22.50;29.40;;;;;;10388281;28;20232;-72
2021/06/11 23:24:03;;;;;;;5.83;5.43;;;22.40;30.00;;;;;;10391341;28;20241;-73
2021/06/11 23:29:06;;;;;;;6.57;5.60;;;22.30;29.80;;;;;;10391453;28;20218;-72
2021/06/11 23:34:10;;;;;;;6.10;5.70;;;22.10;29.80;;;;;;10385397;28;20729;-73
2021/06/11 23:39:14;;;;;;;6.87;6.37;;;22.10;30.70;;;;;;10393998;28;20238;-73
2021/06/11 23:44:17;;;;;;;6.67;6.17;;;21.90;30.10;;;;;;10390811;28;20244;-73
2021/06/11 23:49:21;;;;;;;6.37;5.87;;;21.90;30.50;;;;;;10387025;28;20240;-73
2021/06/11 23:54:24;;;;;;;6.07;5.67;;;21.90;31.20;;;;;;10386023;28;20241;-73
2021/06/11 23:59:26;;;;;;;6.40;5.90;;;21.90;30.70;;;;;;10379724;28;20231;-73
